Decoded Metar for LFPG (PARIS CHARLES DE GAULLE in FRANCE) (IATA:CDG) | Meteo·Mobile Aviation Weather
aviador You're here:

LFPG Decoded Metar

PARIS CHARLES DE GAULLE in FRANCE
Report Time2019-12-15 12:00:00
UTC Time2019-12-15 12:33:45
Flight Rules vfr VFR
Wind240° at 13 kt
W.Decomp.*RWY 26: 12.3 kt HW 4.2 kt LCW
RWY 27: 11.4 kt HW 6.3 kt LCW
Visibility9999 m
Phenomena:N/A
Clouds:N/A
Expected CloudBase > 2,400 ft AGL from Temp-Dew spread
CeilingNone
Temp09°C (ISA -5)
Dew Point03°C (66% RH)
AAT2.8°C
QNH1005 hPa
Density Alt102 ft
Elevation358 ft
Report Wrong Elevation
Raw Report
LFPG 151200Z 24013KT CAVOK 09/03 Q1005 NOSIG=

Extra information for LFPG:More info

Metar Taf Metar & Taf Last 4 Metars F.Rules Stats Wind Profile Meteogram Temp Stats Airport Information Weather charts Add Link Nearby VenuesMetar ALERT Operation Metar Decoded Social comments